sensor_id;sensor_type;location;lat;lon;timestamp;P1;durP1;ratioP1;P2;durP2;ratioP2
44110;SDS011;29774;52.664;5.074;2023-04-24T00:02:04;2.13;;;1.60;;
44110;SDS011;29774;52.664;5.074;2023-04-24T00:04:31;1.23;;;1.13;;
44110;SDS011;29774;52.664;5.074;2023-04-24T00:06:57;2.05;;;1.42;;
44110;SDS011;29774;52.664;5.074;2023-04-24T00:09:25;1.27;;;1.17;;
44110;SDS011;29774;52.664;5.074;2023-04-24T00:11:51;2.30;;;1.58;;
44110;SDS011;29774;52.664;5.074;2023-04-24T00:14:17;2.10;;;1.90;;
44110;SDS011;29774;52.664;5.074;2023-04-24T00:16:43;2.35;;;2.03;;
44110;SDS011;29774;52.664;5.074;2023-04-24T00:19:09;2.88;;;2.20;;
44110;SDS011;29774;52.664;5.074;2023-04-24T00:21:36;2.35;;;2.08;;
44110;SDS011;29774;52.664;5.074;2023-04-24T00:24:02;2.30;;;2.10;;
44110;SDS011;29774;52.664;5.074;2023-04-24T00:26:28;3.08;;;2.75;;
44110;SDS011;29774;52.664;5.074;2023-04-24T00:28:54;2.80;;;2.40;;
44110;SDS011;29774;52.664;5.074;2023-04-24T00:31:19;2.83;;;2.53;;
44110;SDS011;29774;52.664;5.074;2023-04-24T00:33:45;3.30;;;2.60;;
44110;SDS011;29774;52.664;5.074;2023-04-24T00:36:11;3.03;;;2.30;;
44110;SDS011;29774;52.664;5.074;2023-04-24T00:38:36;2.20;;;2.00;;
44110;SDS011;29774;52.664;5.074;2023-04-24T00:41:02;2.45;;;2.03;;
44110;SDS011;29774;52.664;5.074;2023-04-24T00:43:28;2.65;;;1.75;;
44110;SDS011;29774;52.664;5.074;2023-04-24T00:45:53;2.38;;;2.15;;
44110;SDS011;29774;52.664;5.074;2023-04-24T00:48:20;3.30;;;1.85;;
44110;SDS011;29774;52.664;5.074;2023-04-24T00:50:46;2.15;;;1.95;;
44110;SDS011;29774;52.664;5.074;2023-04-24T00:53:11;2.50;;;2.30;;
44110;SDS011;29774;52.664;5.074;2023-04-24T00:55:37;2.95;;;2.10;;
44110;SDS011;29774;52.664;5.074;2023-04-24T00:58:02;2.75;;;2.50;;
44110;SDS011;29774;52.664;5.074;2023-04-24T01:00:29;2.58;;;2.38;;
44110;SDS011;29774;52.664;5.074;2023-04-24T01:02:55;2.80;;;2.03;;
44110;SDS011;29774;52.664;5.074;2023-04-24T01:05:23;2.50;;;2.20;;
44110;SDS011;29774;52.664;5.074;2023-04-24T01:07:49;3.40;;;2.67;;
44110;SDS011;29774;52.664;5.074;2023-04-24T01:10:15;2.92;;;2.63;;
44110;SDS011;29774;52.664;5.074;2023-04-24T01:12:42;2.08;;;1.90;;
44110;SDS011;29774;52.664;5.074;2023-04-24T01:15:08;2.10;;;1.70;;
44110;SDS011;29774;52.664;5.074;2023-04-24T01:17:34;1.60;;;1.50;;
44110;SDS011;29774;52.664;5.074;2023-04-24T01:20:00;1.38;;;1.27;;
44110;SDS011;29774;52.664;5.074;2023-04-24T01:22:29;1.60;;;1.50;;
44110;SDS011;29774;52.664;5.074;2023-04-24T01:24:54;3.13;;;1.85;;
44110;SDS011;29774;52.664;5.074;2023-04-24T01:27:20;1.63;;;1.52;;
44110;SDS011;29774;52.664;5.074;2023-04-24T01:29:46;1.92;;;1.42;;
44110;SDS011;29774;52.664;5.074;2023-04-24T01:32:14;1.63;;;1.10;;
44110;SDS011;29774;52.664;5.074;2023-04-24T01:34:40;2.22;;;1.27;;
44110;SDS011;29774;52.664;5.074;2023-04-24T01:37:06;1.95;;;1.85;;
44110;SDS011;29774;52.664;5.074;2023-04-24T01:39:32;2.20;;;1.45;;
44110;SDS011;29774;52.664;5.074;2023-04-24T01:41:58;1.60;;;1.50;;
44110;SDS011;29774;52.664;5.074;2023-04-24T01:44:24;1.80;;;1.70;;
44110;SDS011;29774;52.664;5.074;2023-04-24T01:46:51;1.77;;;1.48;;
44110;SDS011;29774;52.664;5.074;2023-04-24T01:49:18;1.80;;;1.60;;
44110;SDS011;29774;52.664;5.074;2023-04-24T01:51:44;1.80;;;1.38;;
44110;SDS011;29774;52.664;5.074;2023-04-24T01:54:10;1.30;;;1.20;;
44110;SDS011;29774;52.664;5.074;2023-04-24T01:56:36;1.67;;;1.40;;
44110;SDS011;29774;52.664;5.074;2023-04-24T01:59:05;3.28;;;1.30;;
44110;SDS011;29774;52.664;5.074;2023-04-24T02:01:35;2.05;;;1.33;;
44110;SDS011;29774;52.664;5.074;2023-04-24T02:04:02;1.70;;;1.35;;
44110;SDS011;29774;52.664;5.074;2023-04-24T02:06:28;1.90;;;1.48;;
44110;SDS011;29774;52.664;5.074;2023-04-24T02:08:54;1.25;;;1.15;;
44110;SDS011;29774;52.664;5.074;2023-04-24T02:11:19;1.20;;;1.10;;
44110;SDS011;29774;52.664;5.074;2023-04-24T02:13:45;1.25;;;1.15;;
44110;SDS011;29774;52.664;5.074;2023-04-24T02:16:11;1.75;;;1.58;;
44110;SDS011;29774;52.664;5.074;2023-04-24T02:18:36;2.10;;;1.90;;
44110;SDS011;29774;52.664;5.074;2023-04-24T02:21:02;1.50;;;1.40;;
44110;SDS011;29774;52.664;5.074;2023-04-24T02:23:28;2.53;;;1.98;;
44110;SDS011;29774;52.664;5.074;2023-04-24T02:25:53;3.47;;;2.08;;
44110;SDS011;29774;52.664;5.074;2023-04-24T02:28:19;2.58;;;2.30;;
44110;SDS011;29774;52.664;5.074;2023-04-24T02:30:45;2.42;;;2.20;;
44110;SDS011;29774;52.664;5.074;2023-04-24T02:33:11;3.80;;;2.75;;
44110;SDS011;29774;52.664;5.074;2023-04-24T02:35:37;2.60;;;2.40;;
44110;SDS011;29774;52.664;5.074;2023-04-24T02:38:03;2.90;;;2.28;;
44110;SDS011;29774;52.664;5.074;2023-04-24T02:40:29;2.33;;;2.05;;
44110;SDS011;29774;52.664;5.074;2023-04-24T02:42:54;2.45;;;2.22;;
44110;SDS011;29774;52.664;5.074;2023-04-24T02:45:20;2.30;;;2.10;;
44110;SDS011;29774;52.664;5.074;2023-04-24T02:47:46;2.60;;;2.00;;
44110;SDS011;29774;52.664;5.074;2023-04-24T02:50:11;1.83;;;1.65;;
44110;SDS011;29774;52.664;5.074;2023-04-24T02:52:37;2.17;;;1.50;;
44110;SDS011;29774;52.664;5.074;2023-04-24T02:55:03;2.40;;;2.20;;
44110;SDS011;29774;52.664;5.074;2023-04-24T02:57:29;2.90;;;1.88;;
44110;SDS011;29774;52.664;5.074;2023-04-24T02:59:55;2.72;;;1.85;;
44110;SDS011;29774;52.664;5.074;2023-04-24T03:02:20;2.95;;;2.35;;
44110;SDS011;29774;52.664;5.074;2023-04-24T03:04:46;3.13;;;2.08;;
44110;SDS011;29774;52.664;5.074;2023-04-24T03:07:13;2.70;;;1.70;;
44110;SDS011;29774;52.664;5.074;2023-04-24T03:09:39;2.08;;;1.70;;
44110;SDS011;29774;52.664;5.074;2023-04-24T03:12:05;1.88;;;1.67;;
44110;SDS011;29774;52.664;5.074;2023-04-24T03:14:31;2.78;;;1.70;;
44110;SDS011;29774;52.664;5.074;2023-04-24T03:16:57;2.05;;;1.80;;
44110;SDS011;29774;52.664;5.074;2023-04-24T03:19:22;1.73;;;1.63;;
44110;SDS011;29774;52.664;5.074;2023-04-24T03:21:48;2.00;;;1.80;;
44110;SDS011;29774;52.664;5.074;2023-04-24T03:24:14;1.70;;;1.60;;
44110;SDS011;29774;52.664;5.074;2023-04-24T03:26:40;2.05;;;1.80;;
44110;SDS011;29774;52.664;5.074;2023-04-24T03:29:06;1.58;;;1.48;;
44110;SDS011;29774;52.664;5.074;2023-04-24T03:31:31;2.92;;;1.65;;
44110;SDS011;29774;52.664;5.074;2023-04-24T03:33:57;2.08;;;1.70;;
44110;SDS011;29774;52.664;5.074;2023-04-24T03:36:22;4.03;;;2.33;;
44110;SDS011;29774;52.664;5.074;2023-04-24T03:38:48;3.67;;;2.50;;
44110;SDS011;29774;52.664;5.074;2023-04-24T03:41:14;3.80;;;2.60;;
44110;SDS011;29774;52.664;5.074;2023-04-24T03:43:39;3.78;;;2.60;;
44110;SDS011;29774;52.664;5.074;2023-04-24T03:46:05;3.00;;;2.70;;
44110;SDS011;29774;52.664;5.074;2023-04-24T03:48:31;3.58;;;3.05;;
44110;SDS011;29774;52.664;5.074;2023-04-24T03:50:57;5.07;;;3.80;;
44110;SDS011;29774;52.664;5.074;2023-04-24T03:53:23;5.10;;;3.80;;
44110;SDS011;29774;52.664;5.074;2023-04-24T03:55:48;5.93;;;3.47;;
44110;SDS011;29774;52.664;5.074;2023-04-24T03:58:14;5.72;;;3.97;;
44110;SDS011;29774;52.664;5.074;2023-04-24T04:00:40;5.35;;;3.88;;
44110;SDS011;29774;52.664;5.074;2023-04-24T04:03:06;4.95;;;3.90;;
44110;SDS011;29774;52.664;5.074;2023-04-24T04:05:31;7.55;;;4.40;;
44110;SDS011;29774;52.664;5.074;2023-04-24T04:07:57;5.43;;;4.03;;
44110;SDS011;29774;52.664;5.074;2023-04-24T04:10:23;4.40;;;4.00;;
44110;SDS011;29774;52.664;5.074;2023-04-24T04:12:48;5.70;;;4.55;;
44110;SDS011;29774;52.664;5.074;2023-04-24T04:15:14;5.75;;;4.95;;
44110;SDS011;29774;52.664;5.074;2023-04-24T04:17:40;5.72;;;5.07;;
44110;SDS011;29774;52.664;5.074;2023-04-24T04:20:05;6.18;;;5.10;;
44110;SDS011;29774;52.664;5.074;2023-04-24T04:22:36;4.63;;;3.35;;
44110;SDS011;29774;52.664;5.074;2023-04-24T04:25:02;5.43;;;4.85;;
44110;SDS011;29774;52.664;5.074;2023-04-24T04:27:28;7.80;;;4.85;;
44110;SDS011;29774;52.664;5.074;2023-04-24T04:29:57;5.32;;;4.38;;
44110;SDS011;29774;52.664;5.074;2023-04-24T04:32:26;5.97;;;4.25;;
44110;SDS011;29774;52.664;5.074;2023-04-24T04:34:51;5.07;;;3.88;;
44110;SDS011;29774;52.664;5.074;2023-04-24T04:37:18;4.80;;;3.47;;
44110;SDS011;29774;52.664;5.074;2023-04-24T04:39:44;5.40;;;4.10;;
44110;SDS011;29774;52.664;5.074;2023-04-24T04:42:09;3.53;;;3.05;;
44110;SDS011;29774;52.664;5.074;2023-04-24T04:44:35;3.65;;;3.10;;
44110;SDS011;29774;52.664;5.074;2023-04-24T04:47:01;3.55;;;2.95;;
44110;SDS011;29774;52.664;5.074;2023-04-24T04:49:30;2.85;;;2.55;;
44110;SDS011;29774;52.664;5.074;2023-04-24T04:51:57;2.83;;;2.17;;
44110;SDS011;29774;52.664;5.074;2023-04-24T04:54:22;2.25;;;1.80;;
44110;SDS011;29774;52.664;5.074;2023-04-24T04:56:51;3.15;;;2.08;;
44110;SDS011;29774;52.664;5.074;2023-04-24T04:59:17;2.42;;;1.85;;
44110;SDS011;29774;52.664;5.074;2023-04-24T05:01:42;2.80;;;2.08;;
44110;SDS011;29774;52.664;5.074;2023-04-24T05:04:08;2.17;;;1.92;;
44110;SDS011;29774;52.664;5.074;2023-04-24T05:06:34;1.42;;;1.30;;
44110;SDS011;29774;52.664;5.074;2023-04-24T05:08:59;2.22;;;1.40;;
44110;SDS011;29774;52.664;5.074;2023-04-24T05:11:25;2.15;;;1.50;;
44110;SDS011;29774;52.664;5.074;2023-04-24T05:13:50;2.45;;;1.25;;
44110;SDS011;29774;52.664;5.074;2023-04-24T05:16:16;1.42;;;0.80;;
44110;SDS011;29774;52.664;5.074;2023-04-24T05:18:41;1.27;;;1.17;;
44110;SDS011;29774;52.664;5.074;2023-04-24T05:21:07;1.38;;;1.27;;
44110;SDS011;29774;52.664;5.074;2023-04-24T05:23:33;1.85;;;1.05;;
44110;SDS011;29774;52.664;5.074;2023-04-24T05:25:58;1.60;;;1.50;;
44110;SDS011;29774;52.664;5.074;2023-04-24T05:28:24;2.55;;;2.35;;
44110;SDS011;29774;52.664;5.074;2023-04-24T05:30:53;6.47;;;4.45;;
44110;SDS011;29774;52.664;5.074;2023-04-24T05:33:20;4.13;;;3.10;;
44110;SDS011;29774;52.664;5.074;2023-04-24T05:35:47;9.57;;;5.22;;
44110;SDS011;29774;52.664;5.074;2023-04-24T05:38:13;6.80;;;3.85;;
44110;SDS011;29774;52.664;5.074;2023-04-24T05:40:42;6.68;;;3.75;;
44110;SDS011;29774;52.664;5.074;2023-04-24T05:43:08;8.30;;;5.50;;
44110;SDS011;29774;52.664;5.074;2023-04-24T05:45:33;7.28;;;5.05;;
44110;SDS011;29774;52.664;5.074;2023-04-24T05:48:01;15.00;;;8.73;;
44110;SDS011;29774;52.664;5.074;2023-04-24T05:50:27;12.52;;;6.88;;
44110;SDS011;29774;52.664;5.074;2023-04-24T05:52:52;5.28;;;4.63;;
44110;SDS011;29774;52.664;5.074;2023-04-24T05:55:19;9.35;;;5.80;;
44110;SDS011;29774;52.664;5.074;2023-04-24T05:57:45;10.73;;;7.13;;
44110;SDS011;29774;52.664;5.074;2023-04-24T06:00:11;8.00;;;4.47;;
44110;SDS011;29774;52.664;5.074;2023-04-24T06:02:37;5.57;;;4.80;;
44110;SDS011;29774;52.664;5.074;2023-04-24T06:05:03;10.48;;;6.60;;
44110;SDS011;29774;52.664;5.074;2023-04-24T06:07:30;7.57;;;5.00;;
44110;SDS011;29774;52.664;5.074;2023-04-24T06:09:55;8.55;;;5.82;;
44110;SDS011;29774;52.664;5.074;2023-04-24T06:12:21;8.88;;;6.45;;
44110;SDS011;29774;52.664;5.074;2023-04-24T06:14:47;8.20;;;5.60;;
44110;SDS011;29774;52.664;5.074;2023-04-24T06:17:13;12.98;;;6.32;;
44110;SDS011;29774;52.664;5.074;2023-04-24T06:19:39;6.50;;;5.00;;
44110;SDS011;29774;52.664;5.074;2023-04-24T06:22:05;9.80;;;4.72;;
44110;SDS011;29774;52.664;5.074;2023-04-24T06:24:31;6.03;;;4.35;;
44110;SDS011;29774;52.664;5.074;2023-04-24T06:26:57;10.60;;;4.72;;
44110;SDS011;29774;52.664;5.074;2023-04-24T06:29:24;9.43;;;4.47;;
44110;SDS011;29774;52.664;5.074;2023-04-24T06:31:50;5.50;;;4.15;;
44110;SDS011;29774;52.664;5.074;2023-04-24T06:34:15;5.80;;;4.10;;
44110;SDS011;29774;52.664;5.074;2023-04-24T06:36:41;5.25;;;3.50;;
44110;SDS011;29774;52.664;5.074;2023-04-24T06:39:07;5.93;;;3.58;;
44110;SDS011;29774;52.664;5.074;2023-04-24T06:41:32;7.18;;;3.35;;
44110;SDS011;29774;52.664;5.074;2023-04-24T06:43:58;5.95;;;3.97;;
44110;SDS011;29774;52.664;5.074;2023-04-24T06:46:24;5.97;;;2.70;;
44110;SDS011;29774;52.664;5.074;2023-04-24T06:48:51;7.57;;;4.40;;
44110;SDS011;29774;52.664;5.074;2023-04-24T06:51:20;5.75;;;3.97;;
44110;SDS011;29774;52.664;5.074;2023-04-24T06:53:47;5.65;;;3.78;;
44110;SDS011;29774;52.664;5.074;2023-04-24T06:56:13;5.75;;;3.40;;
44110;SDS011;29774;52.664;5.074;2023-04-24T06:58:38;7.20;;;3.92;;
44110;SDS011;29774;52.664;5.074;2023-04-24T07:01:04;4.93;;;3.50;;
44110;SDS011;29774;52.664;5.074;2023-04-24T07:03:30;5.65;;;3.13;;
44110;SDS011;29774;52.664;5.074;2023-04-24T07:05:55;5.95;;;3.50;;
44110;SDS011;29774;52.664;5.074;2023-04-24T07:08:22;4.25;;;3.33;;
44110;SDS011;29774;52.664;5.074;2023-04-24T07:10:49;7.95;;;4.65;;
44110;SDS011;29774;52.664;5.074;2023-04-24T07:13:15;9.68;;;4.25;;
44110;SDS011;29774;52.664;5.074;2023-04-24T07:15:42;6.20;;;4.20;;
44110;SDS011;29774;52.664;5.074;2023-04-24T07:18:07;6.43;;;3.95;;
44110;SDS011;29774;52.664;5.074;2023-04-24T07:20:33;3.58;;;2.88;;
44110;SDS011;29774;52.664;5.074;2023-04-24T07:22:59;5.60;;;3.45;;
44110;SDS011;29774;52.664;5.074;2023-04-24T07:25:25;8.60;;;4.05;;
44110;SDS011;29774;52.664;5.074;2023-04-24T07:27:50;5.95;;;3.50;;
44110;SDS011;29774;52.664;5.074;2023-04-24T07:30:16;11.50;;;4.38;;
44110;SDS011;29774;52.664;5.074;2023-04-24T07:32:41;4.13;;;2.60;;
44110;SDS011;29774;52.664;5.074;2023-04-24T07:35:07;4.97;;;2.90;;
44110;SDS011;29774;52.664;5.074;2023-04-24T07:37:34;3.22;;;2.42;;
44110;SDS011;29774;52.664;5.074;2023-04-24T07:40:00;6.20;;;3.67;;
44110;SDS011;29774;52.664;5.074;2023-04-24T07:42:26;4.57;;;2.85;;
44110;SDS011;29774;52.664;5.074;2023-04-24T07:44:53;4.60;;;2.40;;
44110;SDS011;29774;52.664;5.074;2023-04-24T07:47:18;4.55;;;3.50;;
44110;SDS011;29774;52.664;5.074;2023-04-24T07:49:44;4.80;;;2.47;;
44110;SDS011;29774;52.664;5.074;2023-04-24T07:52:10;4.28;;;2.40;;
44110;SDS011;29774;52.664;5.074;2023-04-24T07:54:35;2.95;;;2.38;;
44110;SDS011;29774;52.664;5.074;2023-04-24T07:57:02;5.20;;;2.53;;
44110;SDS011;29774;52.664;5.074;2023-04-24T07:59:28;5.53;;;2.97;;
44110;SDS011;29774;52.664;5.074;2023-04-24T08:01:54;5.13;;;2.53;;
44110;SDS011;29774;52.664;5.074;2023-04-24T08:04:19;3.95;;;2.33;;
44110;SDS011;29774;52.664;5.074;2023-04-24T08:06:46;7.13;;;2.70;;
44110;SDS011;29774;52.664;5.074;2023-04-24T08:09:13;9.07;;;2.30;;
44110;SDS011;29774;52.664;5.074;2023-04-24T08:11:38;5.03;;;2.20;;
44110;SDS011;29774;52.664;5.074;2023-04-24T08:14:04;7.07;;;2.08;;
44110;SDS011;29774;52.664;5.074;2023-04-24T08:16:30;10.18;;;3.08;;
44110;SDS011;29774;52.664;5.074;2023-04-24T08:18:57;4.30;;;1.95;;
44110;SDS011;29774;52.664;5.074;2023-04-24T08:21:22;7.70;;;3.03;;
44110;SDS011;29774;52.664;5.074;2023-04-24T08:23:48;5.53;;;1.83;;
44110;SDS011;29774;52.664;5.074;2023-04-24T08:26:14;3.88;;;1.67;;
44110;SDS011;29774;52.664;5.074;2023-04-24T08:28:40;3.20;;;1.65;;
44110;SDS011;29774;52.664;5.074;2023-04-24T08:31:06;4.05;;;1.75;;
44110;SDS011;29774;52.664;5.074;2023-04-24T08:33:31;5.50;;;1.95;;
44110;SDS011;29774;52.664;5.074;2023-04-24T08:36:00;5.78;;;1.67;;
44110;SDS011;29774;52.664;5.074;2023-04-24T08:38:29;5.88;;;1.83;;
44110;SDS011;29774;52.664;5.074;2023-04-24T08:40:56;3.38;;;1.60;;
44110;SDS011;29774;52.664;5.074;2023-04-24T08:43:23;3.20;;;1.50;;
44110;SDS011;29774;52.664;5.074;2023-04-24T08:45:49;3.78;;;1.58;;
44110;SDS011;29774;52.664;5.074;2023-04-24T08:48:16;9.13;;;2.42;;
44110;SDS011;29774;52.664;5.074;2023-04-24T08:50:43;3.55;;;1.67;;
44110;SDS011;29774;52.664;5.074;2023-04-24T08:53:09;3.33;;;1.20;;
44110;SDS011;29774;52.664;5.074;2023-04-24T08:55:36;3.95;;;1.27;;
44110;SDS011;29774;52.664;5.074;2023-04-24T08:58:03;3.25;;;1.52;;
44110;SDS011;29774;52.664;5.074;2023-04-24T09:00:29;2.38;;;1.10;;
44110;SDS011;29774;52.664;5.074;2023-04-24T09:02:55;4.78;;;1.42;;
44110;SDS011;29774;52.664;5.074;2023-04-24T09:05:22;5.47;;;1.75;;
44110;SDS011;29774;52.664;5.074;2023-04-24T09:08:11;2.70;;;1.17;;
44110;SDS011;29774;52.664;5.074;2023-04-24T09:10:38;5.28;;;1.80;;
44110;SDS011;29774;52.664;5.074;2023-04-24T09:13:05;3.15;;;1.30;;
44110;SDS011;29774;52.664;5.074;2023-04-24T09:15:31;5.18;;;1.30;;
44110;SDS011;29774;52.664;5.074;2023-04-24T09:17:57;3.58;;;1.30;;
44110;SDS011;29774;52.664;5.074;2023-04-24T09:20:23;3.85;;;1.33;;
44110;SDS011;29774;52.664;5.074;2023-04-24T09:22:48;3.40;;;1.40;;
44110;SDS011;29774;52.664;5.074;2023-04-24T09:25:19;3.72;;;1.27;;
44110;SDS011;29774;52.664;5.074;2023-04-24T09:27:45;2.72;;;1.23;;
44110;SDS011;29774;52.664;5.074;2023-04-24T09:30:11;1.55;;;0.90;;
44110;SDS011;29774;52.664;5.074;2023-04-24T09:32:37;4.47;;;1.10;;
44110;SDS011;29774;52.664;5.074;2023-04-24T09:37:36;3.05;;;1.10;;
44110;SDS011;29774;52.664;5.074;2023-04-24T09:40:07;1.98;;;1.08;;
44110;SDS011;29774;52.664;5.074;2023-04-24T09:42:33;2.08;;;1.20;;
44110;SDS011;29774;52.664;5.074;2023-04-24T09:44:58;5.78;;;1.60;;
44110;SDS011;29774;52.664;5.074;2023-04-24T09:47:24;2.03;;;0.88;;
44110;SDS011;29774;52.664;5.074;2023-04-24T09:49:49;2.65;;;1.02;;
44110;SDS011;29774;52.664;5.074;2023-04-24T09:52:15;2.20;;;1.00;;
44110;SDS011;29774;52.664;5.074;2023-04-24T09:54:41;1.73;;;0.80;;
44110;SDS011;29774;52.664;5.074;2023-04-24T09:57:09;1.50;;;1.08;;
44110;SDS011;29774;52.664;5.074;2023-04-24T09:59:35;2.05;;;1.10;;
44110;SDS011;29774;52.664;5.074;2023-04-24T10:02:16;2.50;;;0.77;;
44110;SDS011;29774;52.664;5.074;2023-04-24T10:04:53;1.35;;;0.80;;
44110;SDS011;29774;52.664;5.074;2023-04-24T10:07:25;2.60;;;0.80;;
44110;SDS011;29774;52.664;5.074;2023-04-24T10:09:51;4.82;;;1.15;;
44110;SDS011;29774;52.664;5.074;2023-04-24T10:12:17;1.67;;;0.80;;
44110;SDS011;29774;52.664;5.074;2023-04-24T10:14:44;2.65;;;0.80;;
44110;SDS011;29774;52.664;5.074;2023-04-24T10:17:10;2.33;;;0.90;;
44110;SDS011;29774;52.664;5.074;2023-04-24T10:19:37;3.90;;;1.00;;
44110;SDS011;29774;52.664;5.074;2023-04-24T10:22:04;1.63;;;0.90;;
44110;SDS011;29774;52.664;5.074;2023-04-24T10:24:30;4.32;;;1.17;;
44110;SDS011;29774;52.664;5.074;2023-04-24T10:26:58;3.10;;;0.90;;
44110;SDS011;29774;52.664;5.074;2023-04-24T10:29:24;3.10;;;0.90;;
44110;SDS011;29774;52.664;5.074;2023-04-24T10:31:50;0.73;;;0.73;;
44110;SDS011;29774;52.664;5.074;2023-04-24T10:34:16;3.22;;;0.60;;
44110;SDS011;29774;52.664;5.074;2023-04-24T10:36:46;1.73;;;1.20;;
44110;SDS011;29774;52.664;5.074;2023-04-24T10:39:15;1.75;;;0.70;;
44110;SDS011;29774;52.664;5.074;2023-04-24T10:41:42;2.10;;;0.60;;
44110;SDS011;29774;52.664;5.074;2023-04-24T10:44:09;0.82;;;0.57;;
44110;SDS011;29774;52.664;5.074;2023-04-24T10:46:36;2.45;;;0.98;;
44110;SDS011;29774;52.664;5.074;2023-04-24T10:49:06;2.25;;;0.82;;
44110;SDS011;29774;52.664;5.074;2023-04-24T10:51:44;1.85;;;0.80;;
44110;SDS011;29774;52.664;5.074;2023-04-24T10:54:28;1.38;;;0.60;;
44110;SDS011;29774;52.664;5.074;2023-04-24T10:59:46;1.25;;;0.70;;
44110;SDS011;29774;52.664;5.074;2023-04-24T11:02:16;6.88;;;1.10;;
44110;SDS011;29774;52.664;5.074;2023-04-24T11:04:42;1.95;;;0.70;;
44110;SDS011;29774;52.664;5.074;2023-04-24T11:07:10;2.17;;;0.80;;
44110;SDS011;29774;52.664;5.074;2023-04-24T11:09:36;2.22;;;0.73;;
44110;SDS011;29774;52.664;5.074;2023-04-24T11:12:06;2.50;;;0.77;;
44110;SDS011;29774;52.664;5.074;2023-04-24T11:17:31;1.80;;;0.88;;
44110;SDS011;29774;52.664;5.074;2023-04-24T11:20:02;2.45;;;0.55;;
44110;SDS011;29774;52.664;5.074;2023-04-24T11:22:41;1.25;;;0.60;;
44110;SDS011;29774;52.664;5.074;2023-04-24T11:25:07;0.75;;;0.65;;
44110;SDS011;29774;52.664;5.074;2023-04-24T11:27:41;0.60;;;0.40;;
44110;SDS011;29774;52.664;5.074;2023-04-24T11:30:08;1.45;;;0.60;;
44110;SDS011;29774;52.664;5.074;2023-04-24T11:35:03;0.73;;;0.60;;
44110;SDS011;29774;52.664;5.074;2023-04-24T11:37:50;1.23;;;0.50;;
44110;SDS011;29774;52.664;5.074;2023-04-24T11:40:19;0.45;;;0.43;;
44110;SDS011;29774;52.664;5.074;2023-04-24T11:42:48;2.88;;;0.77;;
44110;SDS011;29774;52.664;5.074;2023-04-24T11:45:20;2.17;;;0.57;;
44110;SDS011;29774;52.664;5.074;2023-04-24T11:47:50;2.60;;;0.75;;
44110;SDS011;29774;52.664;5.074;2023-04-24T11:50:17;0.57;;;0.50;;
44110;SDS011;29774;52.664;5.074;2023-04-24T11:52:45;1.50;;;0.47;;
44110;SDS011;29774;52.664;5.074;2023-04-24T11:57:44;2.70;;;0.95;;
44110;SDS011;29774;52.664;5.074;2023-04-24T12:00:19;2.45;;;0.98;;
44110;SDS011;29774;52.664;5.074;2023-04-24T12:02:46;3.50;;;0.95;;
44110;SDS011;29774;52.664;5.074;2023-04-24T12:07:47;1.73;;;0.75;;
44110;SDS011;29774;52.664;5.074;2023-04-24T12:10:12;2.38;;;0.60;;
44110;SDS011;29774;52.664;5.074;2023-04-24T12:12:38;1.08;;;0.60;;
44110;SDS011;29774;52.664;5.074;2023-04-24T12:15:07;1.75;;;0.60;;
44110;SDS011;29774;52.664;5.074;2023-04-24T12:17:34;0.75;;;0.68;;
44110;SDS011;29774;52.664;5.074;2023-04-24T12:20:05;2.40;;;0.63;;
44110;SDS011;29774;52.664;5.074;2023-04-24T12:22:45;2.25;;;0.50;;
44110;SDS011;29774;52.664;5.074;2023-04-24T12:25:13;1.92;;;0.70;;
44110;SDS011;29774;52.664;5.074;2023-04-24T12:27:43;1.33;;;0.60;;
44110;SDS011;29774;52.664;5.074;2023-04-24T12:30:17;0.60;;;0.43;;
44110;SDS011;29774;52.664;5.074;2023-04-24T12:32:47;1.42;;;0.70;;
44110;SDS011;29774;52.664;5.074;2023-04-24T12:35:22;1.30;;;0.60;;
44110;SDS011;29774;52.664;5.074;2023-04-24T12:37:48;1.00;;;0.50;;
44110;SDS011;29774;52.664;5.074;2023-04-24T12:40:17;0.77;;;0.40;;
44110;SDS011;29774;52.664;5.074;2023-04-24T12:42:44;1.05;;;0.50;;
44110;SDS011;29774;52.664;5.074;2023-04-24T12:45:14;0.63;;;0.50;;
44110;SDS011;29774;52.664;5.074;2023-04-24T12:47:41;1.40;;;0.57;;
44110;SDS011;29774;52.664;5.074;2023-04-24T12:50:08;0.93;;;0.55;;
44110;SDS011;29774;52.664;5.074;2023-04-24T12:52:35;0.60;;;0.60;;
44110;SDS011;29774;52.664;5.074;2023-04-24T12:55:01;0.70;;;0.60;;
44110;SDS011;29774;52.664;5.074;2023-04-24T12:57:28;1.67;;;0.73;;
44110;SDS011;29774;52.664;5.074;2023-04-24T12:59:55;2.05;;;0.70;;
44110;SDS011;29774;52.664;5.074;2023-04-24T13:02:22;2.20;;;0.63;;
44110;SDS011;29774;52.664;5.074;2023-04-24T13:04:49;1.58;;;0.68;;
44110;SDS011;29774;52.664;5.074;2023-04-24T13:07:15;2.20;;;0.77;;
44110;SDS011;29774;52.664;5.074;2023-04-24T13:09:42;3.30;;;0.93;;
44110;SDS011;29774;52.664;5.074;2023-04-24T13:12:09;3.10;;;0.70;;
44110;SDS011;29774;52.664;5.074;2023-04-24T13:14:35;0.95;;;0.50;;
44110;SDS011;29774;52.664;5.074;2023-04-24T13:17:01;8.63;;;2.00;;
44110;SDS011;29774;52.664;5.074;2023-04-24T13:19:28;2.83;;;0.85;;
44110;SDS011;29774;52.664;5.074;2023-04-24T13:21:54;5.68;;;1.10;;
44110;SDS011;29774;52.664;5.074;2023-04-24T13:24:21;4.28;;;1.13;;
44110;SDS011;29774;52.664;5.074;2023-04-24T13:26:50;1.08;;;0.60;;
44110;SDS011;29774;52.664;5.074;2023-04-24T13:29:16;4.45;;;0.85;;
44110;SDS011;29774;52.664;5.074;2023-04-24T13:31:42;3.78;;;1.42;;
44110;SDS011;29774;52.664;5.074;2023-04-24T13:34:07;2.28;;;0.90;;
44110;SDS011;29774;52.664;5.074;2023-04-24T13:36:33;1.75;;;0.98;;
44110;SDS011;29774;52.664;5.074;2023-04-24T13:38:58;5.38;;;1.52;;
44110;SDS011;29774;52.664;5.074;2023-04-24T13:41:24;1.70;;;0.73;;
44110;SDS011;29774;52.664;5.074;2023-04-24T13:43:50;2.13;;;0.80;;
44110;SDS011;29774;52.664;5.074;2023-04-24T13:46:15;2.15;;;0.80;;
44110;SDS011;29774;52.664;5.074;2023-04-24T13:48:41;1.00;;;0.68;;
44110;SDS011;29774;52.664;5.074;2023-04-24T13:51:07;0.60;;;0.47;;
44110;SDS011;29774;52.664;5.074;2023-04-24T13:53:33;1.73;;;0.90;;
44110;SDS011;29774;52.664;5.074;2023-04-24T13:56:01;1.88;;;0.80;;
44110;SDS011;29774;52.664;5.074;2023-04-24T13:58:27;5.80;;;1.70;;
44110;SDS011;29774;52.664;5.074;2023-04-24T14:00:53;4.60;;;0.73;;
44110;SDS011;29774;52.664;5.074;2023-04-24T14:03:18;2.05;;;0.88;;
44110;SDS011;29774;52.664;5.074;2023-04-24T14:05:44;6.18;;;1.95;;
44110;SDS011;29774;52.664;5.074;2023-04-24T14:08:09;1.65;;;0.90;;
44110;SDS011;29774;52.664;5.074;2023-04-24T14:10:35;6.68;;;1.98;;
44110;SDS011;29774;52.664;5.074;2023-04-24T14:13:01;1.30;;;0.80;;
44110;SDS011;29774;52.664;5.074;2023-04-24T14:15:26;2.88;;;1.30;;
44110;SDS011;29774;52.664;5.074;2023-04-24T14:17:52;7.22;;;1.48;;
44110;SDS011;29774;52.664;5.074;2023-04-24T14:20:18;1.67;;;0.90;;
44110;SDS011;29774;52.664;5.074;2023-04-24T14:22:44;0.95;;;0.60;;
44110;SDS011;29774;52.664;5.074;2023-04-24T14:25:10;1.83;;;0.70;;
44110;SDS011;29774;52.664;5.074;2023-04-24T14:27:36;2.78;;;1.30;;
44110;SDS011;29774;52.664;5.074;2023-04-24T14:30:02;4.72;;;0.85;;
44110;SDS011;29774;52.664;5.074;2023-04-24T14:32:29;5.07;;;0.80;;
44110;SDS011;29774;52.664;5.074;2023-04-24T14:34:54;5.10;;;1.33;;
44110;SDS011;29774;52.664;5.074;2023-04-24T14:37:20;0.75;;;0.57;;
44110;SDS011;29774;52.664;5.074;2023-04-24T14:39:46;2.78;;;0.82;;
44110;SDS011;29774;52.664;5.074;2023-04-24T14:42:11;2.38;;;1.08;;
44110;SDS011;29774;52.664;5.074;2023-04-24T14:44:37;2.42;;;1.13;;
44110;SDS011;29774;52.664;5.074;2023-04-24T14:47:02;6.72;;;2.08;;
44110;SDS011;29774;52.664;5.074;2023-04-24T14:49:28;3.45;;;1.05;;
44110;SDS011;29774;52.664;5.074;2023-04-24T14:51:54;6.18;;;1.88;;
44110;SDS011;29774;52.664;5.074;2023-04-24T14:54:20;4.68;;;1.60;;
44110;SDS011;29774;52.664;5.074;2023-04-24T14:56:48;2.40;;;1.10;;
44110;SDS011;29774;52.664;5.074;2023-04-24T14:59:14;4.13;;;1.73;;
44110;SDS011;29774;52.664;5.074;2023-04-24T15:01:39;4.30;;;1.10;;